createdAt,value
2024-01-09T00:01:09.609Z,101730.88
2024-01-09T00:03:38.300Z,101755.25
2024-01-09T00:06:06.864Z,101757.44
2024-01-09T00:08:37.494Z,101757.47
2024-01-09T00:11:09.474Z,101759.56
2024-01-09T00:13:41.874Z,101744.81
2024-01-09T00:16:10.709Z,101767.19
2024-01-09T00:18:41.112Z,101767.00
2024-01-09T00:21:09.023Z,101763.63
2024-01-09T00:23:50.553Z,101766.75
2024-01-09T00:26:25.687Z,101756.66
2024-01-09T00:28:56.854Z,101760.28
2024-01-09T00:31:25.040Z,101764.75
2024-01-09T00:33:54.203Z,101763.97
2024-01-09T00:36:25.988Z,101759.34
2024-01-09T00:38:57.990Z,101752.31
2024-01-09T00:41:29.749Z,101759.03
2024-01-09T00:43:58.513Z,101747.88
2024-01-09T00:46:36.449Z,101747.28
2024-01-09T00:49:06.256Z,101756.69
2024-01-09T00:51:40.340Z,101744.34
2024-01-09T00:54:10.961Z,101728.25
2024-01-09T00:56:44.959Z,101729.28
2024-01-09T00:59:16.613Z,101747.88
2024-01-09T01:01:45.039Z,101733.38
2024-01-09T01:04:16.850Z,101749.00
2024-01-09T01:06:47.107Z,101754.41
2024-01-09T01:09:16.424Z,101748.44
2024-01-09T01:12:01.025Z,101743.22
2024-01-09T01:14:29.977Z,101740.81
2024-01-09T01:17:08.069Z,101736.75
2024-01-09T01:19:38.449Z,101743.25
2024-01-09T01:22:09.960Z,101741.69
2024-01-09T01:24:40.012Z,101748.91
2024-01-09T01:27:29.239Z,101754.00
2024-01-09T01:29:59.360Z,101758.16
2024-01-09T01:32:28.267Z,101755.91
2024-01-09T01:34:58.986Z,101755.50
2024-01-09T01:37:29.174Z,101754.69
2024-01-09T01:40:03.146Z,101752.03
2024-01-09T01:42:36.312Z,101668.91
2024-01-09T01:45:25.812Z,101748.44
2024-01-09T01:47:56.372Z,101734.50
2024-01-09T01:50:27.095Z,101735.91
2024-01-09T01:52:56.765Z,101737.53
2024-01-09T01:55:31.411Z,101753.91
2024-01-09T01:58:01.689Z,101725.69
2024-01-09T02:00:30.616Z,101740.38
2024-01-09T02:03:00.494Z,101744.72
2024-01-09T02:05:34.427Z,101741.50
2024-01-09T02:08:08.447Z,101740.19
2024-01-09T02:10:40.132Z,101742.84
2024-01-09T02:13:10.904Z,101748.78
2024-01-09T02:15:39.730Z,101739.41
2024-01-09T02:18:11.267Z,101745.50
2024-01-09T02:20:40.826Z,101714.41
2024-01-09T02:23:11.785Z,101719.72
2024-01-09T02:26:00.151Z,101745.69
2024-01-09T02:28:46.943Z,101737.72
2024-01-09T02:31:16.978Z,101734.41
2024-01-09T02:33:48.210Z,101734.09
2024-01-09T02:36:22.502Z,101730.78
2024-01-09T02:38:56.493Z,101738.94
2024-01-09T02:41:28.193Z,101728.97
2024-01-09T02:44:01.432Z,101725.75
2024-01-09T02:46:34.218Z,101726.44
2024-01-09T02:49:03.427Z,101724.06
2024-01-09T02:51:33.244Z,101715.88
2024-01-09T02:54:06.278Z,101716.94
2024-01-09T02:56:38.156Z,101713.22
2024-01-09T02:59:13.541Z,101729.69
2024-01-09T03:01:45.172Z,101721.31
2024-01-09T03:04:18.088Z,101718.19
2024-01-09T03:07:07.599Z,101722.81
2024-01-09T03:09:40.251Z,101722.25
2024-01-09T03:12:09.808Z,101720.25
2024-01-09T03:14:43.987Z,101694.66
2024-01-09T03:17:24.671Z,101707.03
2024-01-09T03:19:53.148Z,101705.41
2024-01-09T03:22:24.692Z,101718.31
2024-01-09T03:24:55.386Z,101701.69
2024-01-09T03:27:31.005Z,101714.59
2024-01-09T03:29:58.814Z,101704.72
2024-01-09T03:32:32.500Z,101695.66
2024-01-09T03:35:09.187Z,101712.50
2024-01-09T03:37:39.582Z,101714.28
2024-01-09T03:40:12.147Z,101719.38
2024-01-09T03:42:41.999Z,101716.47
2024-01-09T03:45:11.054Z,101718.34
2024-01-09T03:47:43.226Z,101707.53
2024-01-09T03:50:15.920Z,101700.19
2024-01-09T03:52:44.027Z,101683.75
2024-01-09T03:55:15.574Z,101713.03
2024-01-09T03:57:43.821Z,101715.88
2024-01-09T04:00:15.150Z,101711.56
2024-01-09T04:02:52.325Z,101720.59
2024-01-09T04:05:20.853Z,101712.69
2024-01-09T04:07:53.015Z,101712.91
2024-01-09T04:10:23.991Z,101708.78
2024-01-09T04:12:58.083Z,101709.78
2024-01-09T04:15:28.646Z,101703.72
2024-01-09T04:18:03.218Z,101667.53
2024-01-09T04:20:32.913Z,101706.75
2024-01-09T04:23:04.198Z,101701.22
2024-01-09T04:25:33.690Z,101712.97
2024-01-09T04:28:04.223Z,101688.88
2024-01-09T04:30:33.699Z,101688.56
2024-01-09T04:33:11.480Z,101712.47
2024-01-09T04:35:45.689Z,101697.84
2024-01-09T04:38:19.521Z,101715.13
2024-01-09T04:40:52.419Z,101709.03
2024-01-09T04:43:20.611Z,101698.03
2024-01-09T04:45:50.432Z,101702.16
2024-01-09T04:48:22.506Z,101699.06
2024-01-09T04:50:51.859Z,101698.94
2024-01-09T04:53:20.086Z,101700.41
2024-01-09T04:55:51.600Z,101694.66
2024-01-09T04:58:21.340Z,101667.91
2024-01-09T05:00:52.483Z,101695.59
2024-01-09T05:03:23.809Z,101690.38
2024-01-09T05:05:52.533Z,101691.16
2024-01-09T05:08:24.800Z,101684.13
2024-01-09T05:10:55.574Z,101691.22
2024-01-09T05:13:27.388Z,101668.38
2024-01-09T05:16:03.435Z,101690.75
2024-01-09T05:18:34.629Z,101677.81
2024-01-09T05:21:06.312Z,101664.72
2024-01-09T05:23:36.463Z,101683.56
2024-01-09T05:26:09.469Z,101670.78
2024-01-09T05:28:49.860Z,101673.22
2024-01-09T05:31:22.638Z,101670.88
2024-01-09T05:33:54.204Z,101683.38
2024-01-09T05:36:25.950Z,101687.56
2024-01-09T05:38:57.859Z,101682.72
2024-01-09T05:41:46.746Z,101669.94
2024-01-09T05:44:19.647Z,101680.38
2024-01-09T05:46:52.662Z,101692.53
2024-01-09T05:49:33.595Z,101704.41
2024-01-09T05:52:04.521Z,101681.94
2024-01-09T05:54:34.408Z,101681.88
2024-01-09T05:57:10.662Z,101682.41
2024-01-09T05:59:49.497Z,101670.31
2024-01-09T06:02:25.094Z,101673.13
2024-01-09T06:04:58.244Z,101676.81
2024-01-09T06:07:27.611Z,101676.25
2024-01-09T06:10:00.240Z,101675.16
2024-01-09T06:12:30.853Z,101677.97
2024-01-09T06:15:01.005Z,101665.06
2024-01-09T06:17:30.220Z,101681.09
2024-01-09T06:20:03.005Z,101665.81
2024-01-09T06:22:31.164Z,101680.22
2024-01-09T06:25:04.202Z,101669.16
2024-01-09T06:27:35.050Z,101679.03
2024-01-09T06:30:04.773Z,101667.56
2024-01-09T06:32:32.808Z,101669.66
2024-01-09T06:35:13.452Z,101688.50
2024-01-09T06:37:56.149Z,101676.88
2024-01-09T06:40:27.382Z,101685.31
2024-01-09T06:42:55.667Z,101693.97
2024-01-09T06:45:24.402Z,101699.09
2024-01-09T06:47:53.168Z,101697.41
2024-01-09T06:50:33.336Z,101685.91
2024-01-09T06:53:08.146Z,101688.47
2024-01-09T06:55:39.057Z,101705.34
2024-01-09T06:58:07.321Z,101664.94
2024-01-09T07:00:36.235Z,101693.25
2024-01-09T07:03:05.229Z,101700.66
2024-01-09T07:05:35.759Z,101702.59
2024-01-09T07:08:04.230Z,101704.25
2024-01-09T07:10:36.714Z,101700.34
2024-01-09T07:13:08.050Z,101702.53
2024-01-09T07:15:42.255Z,101689.50
2024-01-09T07:18:12.171Z,101709.63
2024-01-09T07:20:44.538Z,101689.91
2024-01-09T07:23:19.832Z,101703.88
2024-01-09T07:26:01.954Z,101714.94
2024-01-09T07:28:36.011Z,101719.13
2024-01-09T07:31:05.799Z,101724.50
2024-01-09T07:33:41.280Z,101703.72
2024-01-09T07:36:15.814Z,101735.31
2024-01-09T07:38:47.594Z,101730.00
2024-01-09T07:41:18.766Z,101739.81
2024-01-09T07:43:48.709Z,101735.03
2024-01-09T07:46:18.530Z,101724.00
2024-01-09T07:48:50.028Z,101729.03
2024-01-09T07:51:23.683Z,101737.56
2024-01-09T07:53:57.758Z,101731.63
2024-01-09T07:56:26.084Z,101737.63
2024-01-09T07:59:06.379Z,101727.84
2024-01-09T08:01:37.076Z,101727.56
2024-01-09T08:04:08.588Z,101716.66
2024-01-09T08:06:38.905Z,101738.38
2024-01-09T08:09:07.385Z,101713.81
2024-01-09T08:11:36.498Z,101725.22
2024-01-09T08:14:13.075Z,101730.28
2024-01-09T08:16:47.192Z,101732.00
2024-01-09T08:19:17.614Z,101716.59
2024-01-09T08:21:50.073Z,101720.41
2024-01-09T08:24:20.825Z,101732.59
2024-01-09T08:26:50.669Z,101710.03
2024-01-09T08:29:21.709Z,101732.78
2024-01-09T08:31:53.274Z,101707.19
2024-01-09T08:34:25.279Z,101708.03
2024-01-09T08:36:55.631Z,101728.41
2024-01-09T08:39:23.743Z,101732.22
2024-01-09T08:41:52.335Z,101734.13
2024-01-09T08:44:35.806Z,101724.31
2024-01-09T08:47:04.577Z,101711.91
2024-01-09T08:49:43.393Z,101727.59
2024-01-09T08:52:17.207Z,101727.19
2024-01-09T08:54:47.007Z,101728.81
2024-01-09T08:57:14.908Z,101730.03
2024-01-09T08:59:45.237Z,101731.63
2024-01-09T09:02:15.505Z,101724.19
2024-01-09T09:04:43.402Z,101735.75
2024-01-09T09:07:17.585Z,101730.41
2024-01-09T09:09:45.911Z,101740.31
2024-01-09T09:12:23.214Z,101701.72
2024-01-09T09:14:53.493Z,101730.56
2024-01-09T09:17:22.859Z,101748.81
2024-01-09T09:19:53.112Z,101739.97
2024-01-09T09:22:30.397Z,101747.16
2024-01-09T09:25:00.988Z,101743.06
2024-01-09T09:27:31.519Z,101736.72
2024-01-09T09:30:15.360Z,101737.81
2024-01-09T09:32:46.024Z,101747.06
2024-01-09T09:35:14.849Z,101731.25
2024-01-09T09:37:46.073Z,101711.94
2024-01-09T09:40:20.658Z,101721.44
2024-01-09T09:42:55.557Z,101731.34
2024-01-09T09:45:26.672Z,101729.75
2024-01-09T09:47:57.627Z,101728.66
2024-01-09T09:50:30.891Z,101725.31
2024-01-09T09:53:03.686Z,101741.09
2024-01-09T09:55:31.936Z,101729.47
2024-01-09T09:58:04.379Z,101734.88
2024-01-09T10:00:35.295Z,101724.06
2024-01-09T10:03:08.131Z,101716.06
2024-01-09T10:05:53.143Z,101718.63
2024-01-09T10:08:35.703Z,101714.78
2024-01-09T10:11:06.197Z,101721.25
2024-01-09T10:13:42.160Z,101717.88
2024-01-09T10:16:15.483Z,101704.34
2024-01-09T10:18:44.576Z,101710.34
2024-01-09T10:21:13.692Z,101699.34
2024-01-09T10:23:45.243Z,101705.22
2024-01-09T10:26:14.670Z,101698.97
2024-01-09T10:28:45.745Z,101699.91
2024-01-09T10:31:17.249Z,101696.38
2024-01-09T10:33:49.431Z,101692.63
2024-01-09T10:36:17.454Z,101693.16
2024-01-09T10:38:51.095Z,101682.19
2024-01-09T10:41:23.731Z,101694.19
2024-01-09T10:43:55.725Z,101671.53
2024-01-09T10:46:35.234Z,101672.47
2024-01-09T10:49:17.491Z,101671.94
2024-01-09T10:51:50.644Z,101675.56
2024-01-09T10:54:23.698Z,101677.38
2024-01-09T10:56:55.085Z,101677.69
2024-01-09T10:59:25.399Z,101668.78
2024-01-09T11:01:57.055Z,101672.91
2024-01-09T11:04:25.867Z,101663.97
2024-01-09T11:07:04.229Z,101674.22
2024-01-09T11:09:37.386Z,101665.63
2024-01-09T11:12:08.679Z,101673.44
2024-01-09T11:14:47.900Z,101671.41
2024-01-09T11:17:21.416Z,101661.19
2024-01-09T11:19:52.279Z,101635.72
2024-01-09T11:22:24.457Z,101659.75
2024-01-09T11:25:02.462Z,101589.84
2024-01-09T11:27:44.410Z,101639.34
2024-01-09T11:30:15.647Z,101627.19
2024-01-09T11:32:51.956Z,101627.44
2024-01-09T11:35:22.960Z,101635.22
2024-01-09T11:37:58.591Z,101624.31
2024-01-09T11:40:33.144Z,101624.44
2024-01-09T11:43:03.798Z,101616.53
2024-01-09T11:45:34.694Z,101618.47
2024-01-09T11:48:05.210Z,101611.81
2024-01-09T11:50:36.571Z,101614.81
2024-01-09T11:53:10.784Z,101602.38
2024-01-09T11:55:40.199Z,101606.16
2024-01-09T11:58:11.114Z,101600.22
2024-01-09T12:00:42.696Z,101561.94
2024-01-09T12:03:20.339Z,101598.53
2024-01-09T12:05:53.607Z,101599.22
2024-01-09T12:08:28.301Z,101578.88
2024-01-09T12:11:00.523Z,101571.09
2024-01-09T12:13:41.400Z,101579.31
2024-01-09T12:16:23.474Z,101584.78
2024-01-09T12:18:56.454Z,101577.16
2024-01-09T12:21:31.756Z,101568.75
2024-01-09T12:24:19.983Z,101584.22
2024-01-09T12:26:55.508Z,101560.53
2024-01-09T12:29:26.407Z,101553.22
2024-01-09T12:31:59.928Z,101553.47
2024-01-09T12:34:29.064Z,101538.41
2024-01-09T12:37:02.887Z,101578.75
2024-01-09T12:39:36.850Z,101555.03
2024-01-09T12:42:18.465Z,101548.13
2024-01-09T12:44:46.549Z,101531.34
2024-01-09T12:47:22.341Z,101536.50
2024-01-09T12:50:02.685Z,101539.19
2024-01-09T12:52:36.957Z,101543.84
2024-01-09T12:55:08.307Z,101528.59
2024-01-09T12:57:45.585Z,101533.09
2024-01-09T13:00:17.467Z,101529.16
2024-01-09T13:02:46.094Z,101518.72
2024-01-09T13:05:21.367Z,101518.47
2024-01-09T13:07:51.556Z,101529.81
2024-01-09T13:10:23.876Z,101526.53
2024-01-09T13:12:56.020Z,101519.72
2024-01-09T13:15:26.277Z,101516.50
2024-01-09T13:17:55.462Z,101490.34
2024-01-09T13:20:30.347Z,101512.50
2024-01-09T13:25:37.830Z,101517.13
2024-01-09T13:28:11.234Z,101511.56
2024-01-09T13:30:51.755Z,101499.41
2024-01-09T13:33:22.794Z,101515.38
2024-01-09T13:35:57.303Z,101523.59
2024-01-09T13:38:27.146Z,101518.75
2024-01-09T13:41:00.792Z,101524.31
2024-01-09T13:43:35.163Z,101520.41
2024-01-09T13:46:04.435Z,101515.38
2024-01-09T13:48:35.273Z,101520.63
2024-01-09T13:51:49.666Z,101505.16
2024-01-09T13:54:01.258Z,101519.53
2024-01-09T13:56:34.467Z,101519.50
2024-01-09T13:59:11.623Z,101511.91
2024-01-09T14:01:44.067Z,101513.91
2024-01-09T14:04:18.794Z,101517.38
2024-01-09T14:06:55.771Z,101519.97
2024-01-09T14:09:26.517Z,101521.59
2024-01-09T14:11:57.392Z,101511.69
2024-01-09T14:14:27.704Z,101524.94
2024-01-09T14:16:57.384Z,101505.72
2024-01-09T14:19:26.915Z,101517.69
2024-01-09T14:21:55.313Z,101508.78
2024-01-09T14:24:26.154Z,101513.06
2024-01-09T14:26:59.075Z,101521.72
2024-01-09T14:29:37.517Z,101524.00
2024-01-09T14:32:10.165Z,101515.56
2024-01-09T14:34:40.119Z,101510.09
2024-01-09T14:37:12.893Z,101516.19
2024-01-09T14:39:45.349Z,101518.09
2024-01-09T14:42:13.491Z,101503.91
2024-01-09T14:44:43.284Z,101500.84
2024-01-09T14:47:12.779Z,101499.00
2024-01-09T14:49:43.342Z,101501.34
2024-01-09T14:52:15.360Z,101508.47
2024-01-09T14:54:44.856Z,101497.03
2024-01-09T14:57:14.163Z,101516.41
2024-01-09T14:59:46.377Z,101504.06
2024-01-09T15:02:18.978Z,101507.19
2024-01-09T15:04:52.122Z,101496.00
2024-01-09T15:07:21.431Z,101496.84
2024-01-09T15:09:51.944Z,101492.94
2024-01-09T15:12:24.035Z,101496.41
2024-01-09T15:14:53.898Z,101455.38
2024-01-09T15:17:23.982Z,101498.06
2024-01-09T15:19:58.729Z,101491.31
2024-01-09T15:22:29.726Z,101481.97
2024-01-09T15:25:01.640Z,101486.44
2024-01-09T15:27:30.302Z,101504.78
2024-01-09T15:30:01.036Z,101515.84
2024-01-09T15:32:31.998Z,101514.06
2024-01-09T15:35:05.448Z,101515.66
2024-01-09T15:37:38.958Z,101513.25
2024-01-09T15:40:18.294Z,101515.91
2024-01-09T15:42:47.271Z,101495.00
2024-01-09T15:45:19.903Z,101490.44
2024-01-09T15:48:00.380Z,101491.09
2024-01-09T15:50:30.611Z,101502.34
2024-01-09T15:53:04.026Z,101511.06
2024-01-09T15:55:34.479Z,101507.84
2024-01-09T15:58:07.869Z,101501.00
2024-01-09T16:00:42.292Z,101511.56
2024-01-09T16:03:15.572Z,101491.72
2024-01-09T16:05:47.982Z,101515.78
2024-01-09T16:08:21.448Z,101526.44
2024-01-09T16:10:52.689Z,101520.25
2024-01-09T16:13:27.723Z,101524.91
2024-01-09T16:16:07.716Z,101521.56
2024-01-09T16:18:46.836Z,101514.22
2024-01-09T16:21:17.530Z,101526.09
2024-01-09T16:23:47.700Z,101527.94
2024-01-09T16:26:16.592Z,101535.34
2024-01-09T16:28:52.834Z,101530.88
2024-01-09T16:31:23.420Z,101542.28
2024-01-09T16:33:51.858Z,101540.81
2024-01-09T16:36:28.221Z,101536.19
2024-01-09T16:38:59.197Z,101533.88
2024-01-09T16:41:36.096Z,101545.19
2024-01-09T16:44:09.635Z,101533.28
2024-01-09T16:46:45.067Z,101524.09
2024-01-09T16:49:16.801Z,101537.06
2024-01-09T16:51:52.070Z,101504.53
2024-01-09T16:54:23.613Z,101532.91
2024-01-09T16:56:53.103Z,101544.56
2024-01-09T16:59:22.177Z,101536.94
2024-01-09T17:01:58.266Z,101546.38
2024-01-09T17:04:29.500Z,101550.03
2024-01-09T17:07:01.232Z,101554.25
2024-01-09T17:09:34.136Z,101550.72
2024-01-09T17:12:02.714Z,101548.56
2024-01-09T17:14:47.102Z,101550.38
2024-01-09T17:17:17.532Z,101553.44
2024-01-09T17:19:47.166Z,101556.78
2024-01-09T17:22:15.368Z,101543.31
2024-01-09T17:24:48.508Z,101544.44
2024-01-09T17:27:17.894Z,101532.28
2024-01-09T17:29:50.268Z,101541.63
2024-01-09T17:32:23.923Z,101558.19
2024-01-09T17:34:53.193Z,101551.94
2024-01-09T17:37:21.925Z,101550.66
2024-01-09T17:39:50.545Z,101555.94
2024-01-09T17:42:24.532Z,101557.75
2024-01-09T17:45:01.258Z,101493.16
2024-01-09T17:47:38.658Z,101565.84
2024-01-09T17:50:11.984Z,101567.66
2024-01-09T17:52:40.880Z,101566.59
2024-01-09T17:55:10.802Z,101556.00
2024-01-09T17:57:43.917Z,101549.56
2024-01-09T18:00:16.586Z,101568.25
2024-01-09T18:02:48.317Z,101565.53
2024-01-09T18:05:18.488Z,101567.34
2024-01-09T18:07:47.691Z,101571.31
2024-01-09T18:10:18.713Z,101574.97
2024-01-09T18:12:46.738Z,101577.38
2024-01-09T18:15:17.102Z,101580.47
2024-01-09T18:17:55.044Z,101580.88
2024-01-09T18:20:28.178Z,101581.69
2024-01-09T18:22:56.880Z,101584.25
2024-01-09T18:25:26.615Z,101559.97
2024-01-09T18:27:55.217Z,101583.53
2024-01-09T18:30:26.140Z,101595.06
2024-01-09T18:32:59.416Z,101580.88
2024-01-09T18:35:29.116Z,101592.38
2024-01-09T18:38:02.373Z,101577.13
2024-01-09T18:40:37.806Z,101593.19
2024-01-09T18:43:07.396Z,101586.94
2024-01-09T18:45:39.957Z,101595.25
2024-01-09T18:48:15.615Z,101599.19
2024-01-09T18:50:47.317Z,101588.34
2024-01-09T18:53:18.502Z,101598.81
2024-01-09T18:55:48.847Z,101594.84
2024-01-09T18:58:17.502Z,101573.72
2024-01-09T19:00:47.877Z,101597.59
2024-01-09T19:03:18.356Z,101584.47
2024-01-09T19:05:48.207Z,101599.13
2024-01-09T19:08:17.805Z,101590.84
2024-01-09T19:10:49.837Z,101582.66
2024-01-09T19:13:20.041Z,101602.03
2024-01-09T19:15:53.404Z,101610.97
2024-01-09T19:18:26.593Z,101606.09
2024-01-09T19:20:58.548Z,101598.22
2024-01-09T19:23:30.155Z,101594.19
2024-01-09T19:26:01.577Z,101586.13
2024-01-09T19:28:31.484Z,101589.94
2024-01-09T19:31:03.693Z,101570.56
2024-01-09T19:33:34.851Z,101605.25
2024-01-09T19:36:05.511Z,101606.34
2024-01-09T19:38:37.627Z,101604.59
2024-01-09T19:41:10.530Z,101579.84
2024-01-09T19:43:41.024Z,101607.72
2024-01-09T19:46:11.772Z,101617.69
2024-01-09T19:48:43.914Z,101623.22
2024-01-09T19:51:25.026Z,101624.31
2024-01-09T19:53:54.990Z,101609.41
2024-01-09T19:56:29.526Z,101621.13
2024-01-09T19:59:05.173Z,101636.16
2024-01-09T20:01:39.961Z,101639.75
2024-01-09T20:04:14.222Z,101632.44
2024-01-09T20:06:46.386Z,101624.41
2024-01-09T20:09:18.190Z,101630.25
2024-01-09T20:11:46.684Z,101632.72
2024-01-09T20:14:16.249Z,101628.25
2024-01-09T20:16:48.379Z,101613.75
2024-01-09T20:19:21.696Z,101621.97
2024-01-09T20:21:53.369Z,101635.28
2024-01-09T20:24:24.464Z,101631.84
2024-01-09T20:26:53.495Z,101635.78
2024-01-09T20:29:22.237Z,101634.25
2024-01-09T20:31:51.995Z,101634.63
2024-01-09T20:34:26.190Z,101629.31
2024-01-09T20:36:56.087Z,101635.28
2024-01-09T20:39:30.921Z,101629.28
2024-01-09T20:41:58.781Z,101627.94
2024-01-09T20:44:28.209Z,101607.19
2024-01-09T20:46:58.912Z,101628.69
2024-01-09T20:49:28.618Z,101627.56
2024-01-09T20:51:57.013Z,101635.25
2024-01-09T20:54:25.512Z,101626.63
2024-01-09T20:56:59.578Z,101635.13
2024-01-09T20:59:29.051Z,101647.56
2024-01-09T21:02:00.599Z,101627.56
2024-01-09T21:04:33.538Z,101638.47
2024-01-09T21:07:01.574Z,101635.81
2024-01-09T21:09:29.814Z,101639.13
2024-01-09T21:12:03.845Z,101642.22
2024-01-09T21:14:31.676Z,101647.69
2024-01-09T21:17:01.733Z,101645.00
2024-01-09T21:19:39.363Z,101652.53
2024-01-09T21:22:10.601Z,101651.66
2024-01-09T21:24:39.212Z,101647.72
2024-01-09T21:27:08.642Z,101630.94
2024-01-09T21:29:43.147Z,101642.84
2024-01-09T21:32:15.323Z,101648.91
2024-01-09T21:34:49.136Z,101644.91
2024-01-09T21:37:16.999Z,101643.94
2024-01-09T21:39:47.610Z,101652.25
2024-01-09T21:42:15.507Z,101649.72
2024-01-09T21:44:46.736Z,101626.81
2024-01-09T21:47:15.854Z,101657.34
2024-01-09T21:49:46.121Z,101644.78
2024-01-09T21:52:17.372Z,101648.69
2024-01-09T21:54:50.537Z,101650.97
2024-01-09T21:57:19.339Z,101623.97
2024-01-09T21:59:53.373Z,101643.97
2024-01-09T22:02:23.219Z,101628.59
2024-01-09T22:05:07.827Z,101638.63
2024-01-09T22:07:43.031Z,101637.00
2024-01-09T22:10:13.050Z,101632.31
2024-01-09T22:12:42.868Z,101637.34
2024-01-09T22:15:12.593Z,101621.88
2024-01-09T22:17:44.099Z,101635.16
2024-01-09T22:20:17.367Z,101608.81
2024-01-09T22:22:45.608Z,101639.13
2024-01-09T22:25:15.899Z,101639.69
2024-01-09T22:27:47.889Z,101637.78
2024-01-09T22:30:18.213Z,101650.34
2024-01-09T22:32:48.041Z,101647.94
2024-01-09T22:35:18.144Z,101644.78
2024-01-09T22:37:47.076Z,101642.22
2024-01-09T22:40:23.271Z,101636.09
2024-01-09T22:42:53.666Z,101649.09
2024-01-09T22:45:23.780Z,101641.97
2024-01-09T22:47:52.686Z,101649.91
2024-01-09T22:50:27.277Z,101640.41
2024-01-09T22:52:56.522Z,101646.50
2024-01-09T22:55:25.141Z,101644.97
2024-01-09T22:57:57.131Z,101644.88
2024-01-09T23:00:27.856Z,101635.38
2024-01-09T23:02:57.781Z,101630.69
2024-01-09T23:05:39.754Z,101638.72
2024-01-09T23:08:14.738Z,101637.94
2024-01-09T23:10:51.208Z,101634.66
2024-01-09T23:13:24.187Z,101631.38
2024-01-09T23:15:55.668Z,101632.16
2024-01-09T23:18:26.472Z,101628.97
2024-01-09T23:20:55.899Z,101627.41
2024-01-09T23:23:26.776Z,101623.63
2024-01-09T23:25:55.548Z,101625.13
2024-01-09T23:28:24.432Z,101611.41
2024-01-09T23:30:53.324Z,101615.41
2024-01-09T23:33:21.619Z,101622.63
2024-01-09T23:35:51.202Z,101620.19
2024-01-09T23:38:28.073Z,101616.13
2024-01-09T23:40:58.195Z,101612.22
2024-01-09T23:43:29.556Z,101623.28
2024-01-09T23:46:00.365Z,101620.47
2024-01-09T23:48:32.442Z,101612.91
2024-01-09T23:51:01.987Z,101605.91
2024-01-09T23:53:33.032Z,101596.31
2024-01-09T23:56:03.363Z,101602.00
2024-01-09T23:58:37.096Z,101587.91
